Pagina principale
METAR-TAF:

METAR-TAF

Aeroporti :

Pian Rosa, Italia

latitudine: 45-56N, longitudine: 007-42E, altezza: 3480 m

Osservazione

Il bollettino è stato emesso 29 minuti fa, alle 09:55 UTC
Vento 11 kt da nord-est
Temperature -16°C
Umidità 100%
Pressione 1006 hPa
Visibilità 10 km o più
Poco nuvoloso ad un'altezza di 300 ft

METAR: LIMH 090955Z 05011KT 9999 FEW003 M16/M16 Q1006 RMK SCT SCT100 MON LIB VAL S MAR CLD VIS MIN 9999

Ora: 11:24 (10:24 UTC)


TAF: mancante

Osservazioni e previsioni meteorologiche di più di 4000 aeroporti (messaggi METAR e TAF).

Le stazioni disponibili sono rappresentate dai dischi gialli e rossi sulla carta.

Puntare il mouse per vedere il nome della stazione.

Clicca sopra per visualizzare le osservazioni e previsioni meteorologiche.

Per cambiare la mappa : fare clic sui pulsanti verdi con una croce nera per ingrandire, il pulsante verde con un trattino per diminuire, o sulla freccia verde per le mappe adiacenti.


METAR-TAF: